Time;durP1;ratioP1;P1;durP2;ratioP2;P2;SDS_P1;SDS_P2;PMS_P1;PMS_P2;Temp;Humidity;BMP_temperature;BMP_pressure;BME280_temperature;BME280_humidity;BME280_pressure;Samples;Min_cycle;Max_cycle;Signal;HPM_P1;HPM_P2
2022/09/12 00:02:24;;;;;;;5.45;4.72;;;15.00;99.90;;;;;;5097179;28;20071;-80
2022/09/12 00:04:50;;;;;;;5.63;4.47;;;15.00;99.90;;;;;;5100806;28;20124;-80
2022/09/12 00:07:16;;;;;;;4.43;3.45;;;15.00;99.90;;;;;;5071667;28;20036;-80
2022/09/12 00:09:42;;;;;;;6.45;3.85;;;14.90;99.90;;;;;;5095430;28;20092;-80
2022/09/12 00:12:07;;;;;;;4.72;4.22;;;14.80;99.90;;;;;;5088911;28;20048;-80
2022/09/12 00:14:33;;;;;;;4.25;3.83;;;14.80;99.90;;;;;;5098355;28;20050;-80
2022/09/12 00:17:00;;;;;;;3.50;3.20;;;14.80;99.90;;;;;;5078930;28;20127;-79
2022/09/12 00:19:26;;;;;;;3.92;3.03;;;14.70;99.90;;;;;;5093402;28;20201;-80
2022/09/12 00:21:52;;;;;;;3.92;3.53;;;14.70;99.90;;;;;;5090883;28;20044;-79
2022/09/12 00:24:18;;;;;;;6.25;4.28;;;14.60;99.90;;;;;;5116821;27;20031;-80
2022/09/12 00:26:43;;;;;;;4.63;4.22;;;14.60;99.90;;;;;;5120531;27;20040;-80
2022/09/12 00:29:17;;;;;;;5.25;4.75;;;14.60;99.90;;;;;;5090503;28;20409;-78
2022/09/12 00:31:43;;;;;;;6.03;5.38;;;14.60;99.90;;;;;;5090898;28;20044;-80
2022/09/12 00:34:09;;;;;;;5.65;5.13;;;14.50;99.90;;;;;;5095770;28;20097;-80
2022/09/12 00:36:35;;;;;;;6.43;5.82;;;14.50;99.90;;;;;;5097081;28;20083;-80
2022/09/12 00:39:02;;;;;;;6.78;6.05;;;14.50;99.90;;;;;;5091840;28;20058;-80
2022/09/12 00:41:36;;;;;;;7.15;6.45;;;14.50;99.90;;;;;;5078122;28;20031;-79
2022/09/12 00:44:22;;;;;;;7.72;7.03;;;14.50;99.90;;;;;;5074571;28;20043;-79
2022/09/12 00:46:56;;;;;;;7.50;6.80;;;14.40;99.90;;;;;;5094899;27;20048;-79
2022/09/12 00:49:44;;;;;;;7.80;6.55;;;14.40;99.90;;;;;;5089640;28;20096;-80
2022/09/12 00:52:18;;;;;;;7.13;6.40;;;14.40;99.90;;;;;;5107892;27;20040;-80
2022/09/12 00:54:53;;;;;;;;;;;14.40;99.90;;;;;;5090368;28;20066;-79
2022/09/12 00:57:22;;;;;;;6.13;5.05;;;14.30;99.90;;;;;;5087914;28;19920;-80
2022/09/12 00:59:55;;;;;;;4.50;3.30;;;14.30;99.90;;;;;;5088291;28;20032;-79
2022/09/12 01:02:21;;;;;;;3.50;2.80;;;14.30;99.90;;;;;;5091094;28;20036;-80
2022/09/12 01:04:47;;;;;;;3.72;3.40;;;14.30;99.90;;;;;;5096528;28;20046;-79
2022/09/12 01:07:14;;;;;;;5.30;4.40;;;14.20;99.90;;;;;;5093668;28;20040;-79
2022/09/12 01:09:41;;;;;;;5.88;4.10;;;14.20;99.90;;;;;;5094323;28;20051;-79
2022/09/12 01:12:07;;;;;;;4.85;4.28;;;14.10;99.90;;;;;;5073232;28;20048;-80
2022/09/12 01:14:33;;;;;;;5.20;4.40;;;14.10;99.90;;;;;;5095518;28;20421;-79
2022/09/12 01:16:59;;;;;;;5.85;4.28;;;14.00;99.90;;;;;;5107417;28;20121;-79
2022/09/12 01:19:50;;;;;;;7.93;4.93;;;14.00;99.90;;;;;;5082547;28;20040;-79
2022/09/12 01:22:37;;;;;;;7.72;5.10;;;14.00;99.90;;;;;;5074623;28;20032;-78
2022/09/12 01:25:25;;;;;;;8.32;5.32;;;13.90;99.90;;;;;;5088599;28;20089;-80
2022/09/12 01:28:24;;;;;;;5.88;5.28;;;13.90;99.90;;;;;;5088587;28;20046;-79
2022/09/12 01:31:16;;;;;;;8.38;6.30;;;13.90;99.90;;;;;;5070288;28;20048;-79
2022/09/12 01:34:02;;;;;;;6.93;6.20;;;13.90;99.90;;;;;;5119173;27;20039;-79
2022/09/12 01:36:50;;;;;;;7.93;6.65;;;13.90;99.90;;;;;;5090649;28;20044;-78
2022/09/12 01:39:39;;;;;;;6.22;5.63;;;13.90;99.90;;;;;;5107905;27;20043;-79
2022/09/12 01:42:17;;;;;;;6.50;5.90;;;13.90;99.90;;;;;;5069608;28;20051;-79
2022/09/12 01:44:55;;;;;;;7.38;6.55;;;13.80;99.90;;;;;;5095502;28;20505;-79
2022/09/12 01:47:39;;;;;;;6.75;6.15;;;13.80;99.90;;;;;;5096689;28;20039;-79
2022/09/12 01:50:06;;;;;;;6.30;5.63;;;13.80;99.90;;;;;;5101388;28;20044;-79
2022/09/12 01:52:41;;;;;;;6.85;6.00;;;13.70;99.90;;;;;;5073594;28;20040;-78
2022/09/12 01:55:11;;;;;;;8.45;6.50;;;13.70;99.90;;;;;;5077303;28;20050;-80
2022/09/12 01:58:00;;;;;;;7.65;6.88;;;13.70;99.90;;;;;;5095221;28;20496;-80
2022/09/12 02:00:26;;;;;;;7.80;6.65;;;13.70;99.90;;;;;;5062676;28;20079;-78
2022/09/12 02:03:11;;;;;;;7.18;6.18;;;13.70;99.90;;;;;;5089760;28;20047;-79
2022/09/12 02:05:50;;;;;;;6.93;5.90;;;13.60;99.90;;;;;;5090566;28;20024;-79
2022/09/12 02:08:24;;;;;;;8.07;5.85;;;13.70;99.90;;;;;;5091562;28;20048;-78
2022/09/12 02:11:03;;;;;;;6.65;6.03;;;13.60;99.90;;;;;;5105578;28;20048;-80
2022/09/12 02:13:46;;;;;;;6.68;5.68;;;13.60;99.90;;;;;;5087508;28;20078;-79
2022/09/12 02:16:40;;;;;;;6.55;5.95;;;13.50;99.90;;;;;;5097678;27;20088;-79
2022/09/12 02:19:16;;;;;;;5.15;4.65;;;13.50;99.90;;;;;;5067880;28;20043;-79
2022/09/12 02:21:54;;;;;;;5.63;5.13;;;13.50;99.90;;;;;;5077605;28;20047;-80
2022/09/12 02:24:38;;;;;;;5.28;4.63;;;13.40;99.90;;;;;;5091304;28;20577;-79
2022/09/12 02:27:10;;;;;;;6.28;4.93;;;13.40;99.90;;;;;;5073210;28;20040;-79
2022/09/12 02:29:35;;;;;;;5.60;5.10;;;13.40;99.90;;;;;;5089714;28;20065;-81
2022/09/12 02:32:17;;;;;;;6.78;6.13;;;13.30;99.90;;;;;;5100466;28;20044;-78
2022/09/12 02:35:00;;;;;;;8.68;7.78;;;13.40;99.90;;;;;;5085957;28;20032;-79
2022/09/12 02:37:44;;;;;;;8.45;7.55;;;13.40;99.90;;;;;;5095860;28;20040;-78
2022/09/12 02:40:11;;;;;;;8.43;7.30;;;13.40;99.90;;;;;;5080559;28;20033;-79
2022/09/12 02:42:37;;;;;;;8.15;6.75;;;13.30;99.90;;;;;;5113748;28;20068;-79
2022/09/12 02:45:03;;;;;;;8.68;7.32;;;13.30;99.90;;;;;;5088429;28;20123;-79
2022/09/12 02:47:48;;;;;;;8.35;7.10;;;13.30;99.90;;;;;;5088812;28;20032;-79
2022/09/12 02:50:14;;;;;;;6.95;6.28;;;13.30;99.90;;;;;;5085998;28;20037;-80
2022/09/12 02:52:41;;;;;;;6.80;6.10;;;13.30;99.90;;;;;;5090413;28;20386;-79
2022/09/12 02:55:10;;;;;;;7.05;6.45;;;13.30;99.90;;;;;;5086389;28;20037;-80
2022/09/12 02:57:36;;;;;;;7.50;6.80;;;13.30;99.90;;;;;;5105156;28;20611;-79
2022/09/12 03:00:03;;;;;;;8.80;8.00;;;13.20;99.90;;;;;;5091934;28;20036;-79
2022/09/12 03:03:06;;;;;;;8.63;7.72;;;13.30;99.90;;;;;;5091354;28;20413;-79
2022/09/12 03:05:49;;;;;;;10.77;9.70;;;13.20;99.90;;;;;;5090530;28;20495;-79
2022/09/12 03:08:46;;;;;;;11.18;10.02;;;13.30;99.90;;;;;;5087800;28;20410;-79
2022/09/12 03:11:42;;;;;;;11.57;10.07;;;13.30;99.90;;;;;;5075011;28;20127;-80
2022/09/12 03:14:40;;;;;;;11.65;10.40;;;13.30;99.90;;;;;;5113707;28;20036;-79
2022/09/12 03:17:11;;;;;;;12.40;11.10;;;13.30;99.90;;;;;;5087197;28;20071;-80
2022/09/12 03:19:49;;;;;;;12.80;11.32;;;13.30;99.90;;;;;;5088996;28;20040;-80
2022/09/12 03:22:32;;;;;;;13.13;11.73;;;13.30;99.90;;;;;;5088725;28;20495;-80
2022/09/12 03:25:21;;;;;;;12.52;11.13;;;13.30;99.90;;;;;;5101097;28;20114;-80
2022/09/12 03:28:10;;;;;;;13.98;12.50;;;13.40;99.90;;;;;;5084031;28;20032;-80
2022/09/12 03:30:44;;;;;;;14.77;13.18;;;13.30;99.90;;;;;;5096375;28;20055;-80
2022/09/12 03:33:15;;;;;;;14.40;12.90;;;13.30;99.90;;;;;;5101246;28;20048;-81
2022/09/12 03:35:41;;;;;;;13.57;12.18;;;13.30;99.90;;;;;;5095525;28;20518;-81
2022/09/12 03:38:07;;;;;;;16.30;13.27;;;13.30;99.90;;;;;;5092735;28;20075;-80
2022/09/12 03:40:36;;;;;;;14.10;12.57;;;13.30;99.90;;;;;;5093479;28;20122;-80
2022/09/12 03:43:03;;;;;;;14.27;12.77;;;13.30;99.90;;;;;;5075917;28;20044;-80
2022/09/12 03:45:28;;;;;;;14.80;13.30;;;13.30;99.90;;;;;;5096942;28;20036;-80
2022/09/12 03:47:54;;;;;;;14.52;12.82;;;13.30;99.90;;;;;;5099554;28;20519;-81
2022/09/12 03:50:20;;;;;;;15.68;13.45;;;13.30;99.90;;;;;;5088677;28;20032;-81
2022/09/12 03:52:45;;;;;;;15.82;13.93;;;13.30;99.90;;;;;;5098206;28;20454;-80
2022/09/12 03:55:11;;;;;;;15.57;13.98;;;13.20;99.90;;;;;;5088798;28;20137;-80
2022/09/12 03:57:36;;;;;;;17.50;14.77;;;13.20;99.90;;;;;;5075314;28;20078;-81
2022/09/12 04:00:05;;;;;;;15.88;14.18;;;13.20;99.90;;;;;;5093047;28;20051;-81
2022/09/12 04:02:30;;;;;;;17.83;14.38;;;13.30;99.90;;;;;;5091406;28;20036;-80
2022/09/12 04:04:56;;;;;;;20.70;17.40;;;13.20;99.90;;;;;;5091037;28;20036;-80
2022/09/12 04:07:21;;;;;;;19.23;15.30;;;13.20;99.90;;;;;;5089003;28;20407;-80
2022/09/12 04:09:47;;;;;;;22.73;17.77;;;13.20;99.90;;;;;;5085906;28;20043;-83
2022/09/12 04:12:13;;;;;;;23.75;18.58;;;13.20;99.90;;;;;;5087747;28;20043;-81
2022/09/12 04:14:39;;;;;;;20.52;17.55;;;13.20;99.90;;;;;;5092610;28;20036;-81
2022/09/12 04:17:04;;;;;;;22.38;18.30;;;13.20;99.90;;;;;;5089055;28;20043;-80
2022/09/12 04:19:30;;;;;;;20.60;17.65;;;13.20;99.90;;;;;;5097134;28;20393;-81
2022/09/12 04:21:55;;;;;;;19.13;16.17;;;13.30;99.90;;;;;;5077749;28;20040;-80
2022/09/12 04:24:21;;;;;;;20.67;17.25;;;13.30;99.90;;;;;;5100456;28;20504;-82
2022/09/12 04:26:47;;;;;;;19.80;16.13;;;13.30;99.90;;;;;;5092524;28;20036;-81
2022/09/12 04:29:13;;;;;;;21.40;17.25;;;13.30;99.90;;;;;;5091818;28;20400;-81
2022/09/12 04:31:40;;;;;;;20.42;16.63;;;13.30;99.90;;;;;;5074384;28;20039;-81
2022/09/12 04:34:05;;;;;;;20.05;17.88;;;13.30;99.90;;;;;;5068883;28;20040;-81
2022/09/12 04:36:33;;;;;;;21.80;19.15;;;13.30;99.90;;;;;;5090218;28;20040;-81
2022/09/12 04:39:00;;;;;;;27.33;18.88;;;13.30;99.90;;;;;;5092607;28;20041;-82
2022/09/12 04:41:32;;;;;;;24.80;20.10;;;13.30;99.90;;;;;;5086490;28;20093;-82
2022/09/12 04:44:03;;;;;;;24.95;18.52;;;13.40;99.90;;;;;;5113570;27;20047;-81
2022/09/12 04:46:31;;;;;;;25.30;19.13;;;13.40;99.90;;;;;;5094455;28;20056;-82
2022/09/12 04:48:57;;;;;;;24.95;19.38;;;13.40;99.90;;;;;;5091219;28;20036;-82
2022/09/12 04:51:29;;;;;;;26.50;20.30;;;13.40;99.90;;;;;;5090167;28;20455;-81
2022/09/12 04:53:58;;;;;;;25.55;20.58;;;13.40;99.90;;;;;;5079127;28;20070;-81
2022/09/12 04:56:25;;;;;;;24.85;19.75;;;13.50;99.90;;;;;;5080714;28;20036;-83
2022/09/12 04:58:51;;;;;;;25.05;20.25;;;13.50;99.90;;;;;;5084680;28;20040;-84
2022/09/12 05:01:19;;;;;;;22.48;18.63;;;13.60;99.90;;;;;;5084808;28;20712;-83
2022/09/12 05:03:47;;;;;;;27.10;21.13;;;13.60;99.90;;;;;;5090127;28;20500;-83
2022/09/12 05:06:21;;;;;;;24.63;19.50;;;13.60;99.90;;;;;;5098611;28;20039;-83
2022/09/12 05:08:46;;;;;;;24.83;20.33;;;13.60;99.90;;;;;;5088779;28;20027;-83
2022/09/12 05:11:15;;;;;;;25.65;20.27;;;13.70;99.90;;;;;;5102739;28;20128;-83
2022/09/12 05:13:41;;;;;;;26.55;20.60;;;13.70;99.90;;;;;;5109071;27;20024;-84
2022/09/12 05:16:09;;;;;;;25.25;19.85;;;13.70;99.90;;;;;;5077513;28;20047;-83
2022/09/12 05:18:36;;;;;;;26.55;20.58;;;13.80;99.90;;;;;;5097366;28;20035;-84
2022/09/12 05:21:04;;;;;;;27.05;21.65;;;13.80;99.90;;;;;;5096418;28;20428;-84
2022/09/12 05:23:30;;;;;;;28.70;20.35;;;13.80;99.90;;;;;;5097146;28;20027;-84
2022/09/12 05:25:57;;;;;;;25.92;20.67;;;13.80;99.90;;;;;;5090349;28;20072;-83
2022/09/12 05:28:24;;;;;;;28.00;21.23;;;13.90;99.90;;;;;;5104579;28;20076;-83
2022/09/12 05:31:05;;;;;;;27.02;19.67;;;13.90;99.90;;;;;;5103365;28;20036;-83
2022/09/12 05:33:32;;;;;;;25.45;20.38;;;14.00;99.90;;;;;;5090059;28;20413;-83
2022/09/12 05:35:58;;;;;;;25.25;20.65;;;14.00;99.90;;;;;;5093988;28;20042;-83
2022/09/12 05:38:24;;;;;;;26.60;21.15;;;14.00;99.90;;;;;;5089661;28;20037;-83
2022/09/12 05:40:51;;;;;;;24.92;20.48;;;14.00;99.90;;;;;;5075033;28;20148;-83
2022/09/12 05:43:16;;;;;;;29.15;21.02;;;14.00;99.90;;;;;;5098216;28;20078;-82
2022/09/12 05:45:42;;;;;;;26.60;20.85;;;14.00;99.90;;;;;;5095679;28;20074;-83
2022/09/12 05:48:07;;;;;;;25.30;20.27;;;14.00;99.90;;;;;;5072437;28;20036;-82
2022/09/12 05:50:33;;;;;;;27.33;21.73;;;14.10;99.90;;;;;;5094571;28;20044;-82
2022/09/12 05:52:58;;;;;;;26.15;21.25;;;14.10;99.90;;;;;;5069549;28;20462;-83
2022/09/12 05:55:25;;;;;;;27.25;20.83;;;14.10;99.90;;;;;;5096155;28;20044;-82
2022/09/12 05:57:50;;;;;;;25.42;19.35;;;14.10;99.90;;;;;;5092998;28;20039;-82
2022/09/12 06:00:17;;;;;;;25.85;21.17;;;14.10;99.90;;;;;;5089361;28;20074;-83
2022/09/12 06:02:43;;;;;;;25.38;21.15;;;14.10;99.90;;;;;;5091569;28;20043;-82
2022/09/12 06:05:09;;;;;;;30.15;21.88;;;14.10;99.90;;;;;;5090183;28;20036;-83
2022/09/12 06:07:35;;;;;;;27.20;21.00;;;14.10;99.90;;;;;;5092835;28;20124;-83
2022/09/12 06:10:02;;;;;;;28.40;22.08;;;14.10;99.90;;;;;;5094036;28;20595;-82
2022/09/12 06:12:29;;;;;;;26.98;21.33;;;14.10;99.90;;;;;;5086292;28;20510;-82
2022/09/12 06:14:54;;;;;;;27.92;22.08;;;14.20;99.90;;;;;;5083363;28;20052;-82
2022/09/12 06:17:21;;;;;;;29.55;22.83;;;14.20;99.90;;;;;;5062550;28;20037;-82
2022/09/12 06:19:46;;;;;;;27.83;21.25;;;14.30;99.90;;;;;;5079879;28;20040;-81
2022/09/12 06:22:12;;;;;;;28.40;21.38;;;14.30;99.90;;;;;;5124942;27;20042;-81
2022/09/12 06:24:38;;;;;;;29.45;23.17;;;14.30;99.90;;;;;;5123133;28;20029;-82
2022/09/12 06:27:04;;;;;;;28.90;22.17;;;14.30;99.90;;;;;;5090553;28;20382;-81
2022/09/12 06:29:31;;;;;;;31.75;23.92;;;14.40;99.90;;;;;;5094871;28;20067;-82
2022/09/12 06:31:57;;;;;;;28.65;23.00;;;14.50;99.90;;;;;;5092583;28;20069;-81
2022/09/12 06:34:23;;;;;;;30.42;23.45;;;14.40;99.90;;;;;;5108588;28;20132;-81
2022/09/12 06:36:49;;;;;;;27.88;22.05;;;14.50;99.90;;;;;;5113322;28;20095;-81
2022/09/12 06:39:20;;;;;;;28.10;21.45;;;14.50;99.90;;;;;;5086166;28;20042;-81
2022/09/12 06:41:47;;;;;;;33.47;25.00;;;14.50;99.90;;;;;;5090463;28;20047;-81
2022/09/12 06:44:20;;;;;;;33.63;23.05;;;14.60;99.90;;;;;;5087951;28;20397;-81
2022/09/12 06:46:46;;;;;;;31.65;23.35;;;14.60;99.90;;;;;;5069827;28;20512;-81
2022/09/12 06:49:12;;;;;;;29.92;22.73;;;14.60;99.90;;;;;;5092308;28;20118;-81
2022/09/12 06:51:38;;;;;;;32.47;24.58;;;14.70;99.90;;;;;;5090694;28;20040;-81
2022/09/12 06:54:04;;;;;;;33.55;23.95;;;14.70;99.90;;;;;;5072758;28;20115;-81
2022/09/12 06:56:30;;;;;;;35.60;25.58;;;14.70;99.90;;;;;;5114796;28;20046;-80
2022/09/12 06:58:57;;;;;;;35.15;25.17;;;14.80;99.90;;;;;;5079369;28;20036;-81
2022/09/12 07:01:27;;;;;;;32.63;24.77;;;14.80;99.90;;;;;;5098765;28;20032;-80
2022/09/12 07:03:58;;;;;;;35.20;25.35;;;14.80;99.90;;;;;;5098756;28;20040;-81
2022/09/12 07:06:30;;;;;;;38.65;25.75;;;14.90;99.90;;;;;;5094776;28;20046;-81
2022/09/12 07:09:01;;;;;;;37.05;26.83;;;14.90;99.90;;;;;;5079302;28;20028;-81
2022/09/12 07:11:32;;;;;;;39.65;26.92;;;15.00;99.90;;;;;;5111172;28;20040;-81
2022/09/12 07:13:59;;;;;;;36.85;27.40;;;15.00;99.90;;;;;;5120200;27;20453;-80
2022/09/12 07:16:25;;;;;;;42.92;29.58;;;15.10;99.90;;;;;;5107588;27;20075;-81
2022/09/12 07:18:52;;;;;;;39.88;27.83;;;15.20;99.90;;;;;;5093046;28;20052;-80
2022/09/12 07:21:18;;;;;;;40.90;28.35;;;15.20;99.90;;;;;;5093810;28;20129;-82
2022/09/12 07:23:44;;;;;;;41.13;29.60;;;15.30;99.90;;;;;;5077322;28;20478;-80
2022/09/12 07:26:11;;;;;;;42.22;28.65;;;15.40;99.90;;;;;;5098256;28;20029;-80
2022/09/12 07:28:37;;;;;;;42.05;30.30;;;15.40;99.90;;;;;;5090399;28;20044;-80
2022/09/12 07:31:11;;;;;;;48.85;32.35;;;15.60;99.90;;;;;;5107217;28;20082;-80
2022/09/12 07:33:38;;;;;;;49.92;32.38;;;15.60;99.90;;;;;;5062457;28;20044;-81
2022/09/12 07:36:07;;;;;;;47.10;33.10;;;15.70;99.90;;;;;;5078105;28;20042;-80
2022/09/12 07:38:33;;;;;;;46.30;31.73;;;15.70;99.90;;;;;;5088633;28;20040;-81
2022/09/12 07:41:00;;;;;;;50.42;33.13;;;15.80;99.90;;;;;;5093012;28;20036;-80
2022/09/12 07:43:26;;;;;;;51.10;32.83;;;15.80;99.90;;;;;;5107823;28;20485;-80
2022/09/12 07:45:55;;;;;;;50.25;33.30;;;15.80;99.90;;;;;;5096474;28;20122;-80
2022/09/12 07:48:21;;;;;;;52.30;34.10;;;15.90;99.90;;;;;;5080996;28;20051;-81
2022/09/12 07:50:55;;;;;;;48.40;33.65;;;15.90;99.90;;;;;;5095321;28;20035;-80
2022/09/12 07:53:21;;;;;;;48.63;33.50;;;15.90;99.90;;;;;;5093550;28;20047;-81
2022/09/12 07:55:53;;;;;;;51.25;34.53;;;16.00;99.90;;;;;;5083566;28;20036;-80
2022/09/12 07:58:18;;;;;;;51.15;34.38;;;16.10;99.90;;;;;;5089362;28;20480;-81
2022/09/12 08:00:44;;;;;;;48.65;34.00;;;16.20;99.90;;;;;;5075179;28;20044;-81
2022/09/12 08:03:10;;;;;;;53.75;35.72;;;16.20;99.90;;;;;;5094156;28;20040;-81
2022/09/12 08:05:36;;;;;;;51.88;33.65;;;16.30;99.90;;;;;;5077399;28;20472;-81
2022/09/12 08:08:01;;;;;;;50.85;34.40;;;16.40;99.90;;;;;;5094278;28;20071;-81
2022/09/12 08:10:27;;;;;;;48.78;33.63;;;16.50;99.90;;;;;;5078201;28;20516;-80
2022/09/12 08:12:52;;;;;;;50.42;33.85;;;16.50;99.90;;;;;;5096148;28;20036;-80
2022/09/12 08:15:19;;;;;;;48.97;33.20;;;16.60;99.90;;;;;;5095849;28;20040;-81
2022/09/12 08:17:44;;;;;;;52.15;34.13;;;16.60;99.90;;;;;;5096250;28;20169;-80
2022/09/12 08:20:11;;;;;;;51.45;33.15;;;16.60;99.90;;;;;;5080722;28;20114;-80
2022/09/12 08:22:36;;;;;;;51.42;32.97;;;16.70;99.90;;;;;;5128942;27;20031;-81
2022/09/12 08:25:02;;;;;;;52.75;33.10;;;16.80;99.90;;;;;;5100795;28;20036;-80
2022/09/12 08:27:28;;;;;;;50.08;32.08;;;16.80;99.90;;;;;;5109063;28;20074;-80
2022/09/12 08:29:54;;;;;;;52.70;33.67;;;16.90;99.90;;;;;;5103887;28;20440;-81
2022/09/12 08:32:20;;;;;;;49.08;33.45;;;16.90;99.90;;;;;;5092246;28;20040;-81
2022/09/12 08:34:45;;;;;;;48.85;32.78;;;17.00;99.90;;;;;;5075559;28;20082;-81
2022/09/12 08:37:11;;;;;;;50.15;32.13;;;17.10;99.90;;;;;;5075668;28;20044;-81
2022/09/12 08:39:36;;;;;;;49.10;31.70;;;17.10;99.90;;;;;;5111217;28;20036;-80
2022/09/12 08:42:04;;;;;;;45.83;30.73;;;17.20;99.90;;;;;;5085692;28;20043;-81
2022/09/12 08:44:41;;;;;;;49.50;32.92;;;17.30;99.90;;;;;;5058637;28;20367;-81
2022/09/12 08:47:21;;;;;;;45.28;30.98;;;17.40;99.90;;;;;;5058693;28;20044;-81
2022/09/12 08:50:05;;;;;;;49.10;32.17;;;17.50;99.90;;;;;;5092103;28;20056;-80
2022/09/12 08:52:51;;;;;;;45.67;30.33;;;17.60;99.90;;;;;;5091826;28;20139;-80
2022/09/12 08:55:25;;;;;;;44.92;30.83;;;17.70;99.90;;;;;;5074679;28;20044;-81
2022/09/12 08:57:52;;;;;;;47.50;31.08;;;17.70;99.90;;;;;;5074452;28;20033;-81
2022/09/12 09:00:18;;;;;;;45.35;31.30;;;17.80;99.90;;;;;;5084274;28;20396;-81
2022/09/12 09:02:53;;;;;;;43.08;30.15;;;17.80;99.90;;;;;;5075995;28;20527;-81
2022/09/12 09:05:39;;;;;;;46.78;29.48;;;18.00;99.90;;;;;;5107054;28;20075;-79
2022/09/12 09:08:55;;;;;;;43.92;30.10;;;18.00;99.90;;;;;;5107526;28;20075;-80
2022/09/12 09:12:03;;;;;;;42.10;28.75;;;18.10;99.90;;;;;;5058301;28;20113;-80
2022/09/12 09:15:00;;;;;;;40.63;28.27;;;18.20;99.90;;;;;;5074100;28;20444;-81
2022/09/12 09:17:40;;;;;;;38.38;27.25;;;18.30;99.90;;;;;;5090504;28;20091;-79
2022/09/12 09:20:20;;;;;;;41.25;28.92;;;18.50;99.90;;;;;;5072839;28;20097;-80
2022/09/12 09:22:54;;;;;;;42.15;27.50;;;18.60;99.90;;;;;;5071996;28;20037;-79
2022/09/12 09:25:33;;;;;;;40.88;27.15;;;18.60;99.90;;;;;;5055700;28;20036;-79
2022/09/12 09:28:03;;;;;;;35.15;25.38;;;18.70;99.90;;;;;;5072898;28;20044;-80
2022/09/12 09:30:29;;;;;;;39.30;26.15;;;18.60;99.90;;;;;;5056541;28;20148;-80
2022/09/12 09:32:58;;;;;;;42.25;28.10;;;18.70;99.90;;;;;;5074473;28;20072;-80
2022/09/12 09:35:37;;;;;;;37.63;25.65;;;18.80;99.90;;;;;;5125418;27;20066;-80
2022/09/12 09:38:25;;;;;;;44.60;27.63;;;18.80;99.90;;;;;;5071962;28;20048;-79
2022/09/12 09:41:31;;;;;;;39.80;26.70;;;18.80;99.90;;;;;;5104895;28;20398;-80
2022/09/12 09:43:57;;;;;;;39.53;26.73;;;18.90;99.90;;;;;;5104673;28;20508;-80
2022/09/12 09:46:23;;;;;;;39.75;27.77;;;19.10;99.90;;;;;;5105527;28;20039;-80
2022/09/12 09:48:50;;;;;;;40.55;28.23;;;19.10;99.90;;;;;;5123551;27;20043;-80
2022/09/12 09:51:25;;;;;;;43.25;28.95;;;19.20;99.90;;;;;;5082214;28;20444;-80
2022/09/12 09:54:02;;;;;;;43.17;29.77;;;19.30;99.90;;;;;;5083592;28;20028;-80
2022/09/12 09:56:36;;;;;;;42.75;31.08;;;19.40;99.90;;;;;;5104574;28;20100;-79
2022/09/12 09:59:32;;;;;;;47.00;33.13;;;19.50;99.90;;;;;;5083650;28;20032;-79
2022/09/12 10:02:18;;;;;;;46.75;30.80;;;19.60;99.90;;;;;;5095655;28;20040;-80
2022/09/12 10:04:54;;;;;;;42.38;30.25;;;19.70;99.90;;;;;;5069214;28;20505;-78
2022/09/12 10:07:21;;;;;;;42.55;29.60;;;19.90;99.90;;;;;;5067618;28;20458;-78
2022/09/12 10:10:06;;;;;;;42.13;29.35;;;20.00;99.90;;;;;;5075116;28;20118;-77
2022/09/12 10:12:32;;;;;;;44.72;28.88;;;20.20;99.90;;;;;;5079444;28;20046;-78
2022/09/12 10:15:01;;;;;;;40.38;27.05;;;20.30;99.90;;;;;;5108577;28;20045;-78
2022/09/12 10:17:45;;;;;;;39.85;27.13;;;20.50;99.90;;;;;;5070526;28;20040;-80
2022/09/12 10:20:29;;;;;;;35.45;24.23;;;20.60;99.90;;;;;;5070712;28;20371;-78
2022/09/12 10:22:56;;;;;;;37.97;24.00;;;20.60;99.90;;;;;;5078645;28;20401;-79
2022/09/12 10:25:24;;;;;;;35.70;24.38;;;20.50;99.90;;;;;;5067662;28;20032;-78
2022/09/12 10:27:57;;;;;;;37.08;23.40;;;20.60;99.90;;;;;;5072578;28;20074;-80
2022/09/12 10:30:26;;;;;;;35.88;22.85;;;20.70;99.90;;;;;;5070023;28;20405;-80
2022/09/12 10:32:55;;;;;;;32.45;21.90;;;20.80;99.90;;;;;;5065999;28;20131;-80
2022/09/12 10:35:30;;;;;;;33.80;22.65;;;20.80;99.90;;;;;;5112038;28;20039;-80
2022/09/12 10:38:13;;;;;;;29.85;21.05;;;20.80;99.90;;;;;;5078073;28;20090;-80
2022/09/12 10:40:41;;;;;;;38.87;24.07;;;20.90;99.90;;;;;;5111856;28;20029;-79
2022/09/12 10:43:24;;;;;;;34.00;21.90;;;21.00;99.90;;;;;;5116696;27;20336;-80
2022/09/12 10:45:49;;;;;;;38.80;25.23;;;21.10;99.90;;;;;;5074665;28;20032;-80
2022/09/12 10:48:29;;;;;;;35.58;22.98;;;21.20;99.90;;;;;;5095622;28;20054;-79
2022/09/12 10:50:58;;;;;;;36.72;23.20;;;21.30;99.90;;;;;;5111817;28;20081;-79
2022/09/12 10:53:31;;;;;;;35.50;23.20;;;21.40;99.90;;;;;;5116002;27;20040;-79
2022/09/12 10:56:12;;;;;;;30.77;20.10;;;21.40;99.90;;;;;;5092222;28;20137;-78
2022/09/12 10:59:00;;;;;;;32.60;20.55;;;21.50;99.90;;;;;;5119456;27;20059;-80
2022/09/12 11:01:35;;;;;;;32.78;18.95;;;21.50;99.90;;;;;;5075497;28;20040;-78
2022/09/12 11:04:00;;;;;;;29.60;18.58;;;21.60;99.90;;;;;;5082753;28;20667;-79
2022/09/12 11:06:49;;;;;;;27.77;18.52;;;21.80;99.90;;;;;;5057005;28;20111;-78
2022/09/12 11:09:30;;;;;;;23.77;16.33;;;22.00;99.90;;;;;;5073847;28;20041;-78
2022/09/12 11:12:26;;;;;;;22.30;15.15;;;22.10;99.90;;;;;;5073175;28;20041;-79
2022/09/12 11:15:25;;;;;;;19.42;12.10;;;22.10;99.90;;;;;;5087961;28;20072;-79
2022/09/12 11:17:56;;;;;;;17.83;12.52;;;22.30;99.90;;;;;;5090717;28;20501;-79
2022/09/12 11:20:40;;;;;;;16.13;10.82;;;22.50;99.90;;;;;;5087953;28;20032;-78
2022/09/12 11:23:35;;;;;;;18.52;12.18;;;22.70;99.90;;;;;;5106990;28;20067;-78
2022/09/12 11:26:35;;;;;;;15.82;10.30;;;22.80;99.90;;;;;;5073331;28;20046;-79
2022/09/12 11:29:01;;;;;;;15.88;11.40;;;23.00;99.90;;;;;;5073343;28;20043;-79
2022/09/12 11:31:50;;;;;;;12.77;9.95;;;23.30;99.90;;;;;;5088499;28;20044;-79
2022/09/12 11:34:24;;;;;;;13.45;10.27;;;23.50;99.90;;;;;;5054100;28;20044;-79
2022/09/12 11:37:05;;;;;;;12.32;9.80;;;23.50;99.90;;;;;;5081315;28;20042;-79
2022/09/12 11:39:51;;;;;;;11.88;8.82;;;23.40;99.90;;;;;;5091831;28;20048;-79
2022/09/12 11:42:37;;;;;;;10.98;8.77;;;23.50;99.90;;;;;;5087714;28;20067;-80
2022/09/12 11:45:14;;;;;;;16.60;10.18;;;23.60;99.90;;;;;;5070410;28;20032;-79
2022/09/12 11:47:44;;;;;;;13.77;10.18;;;23.60;99.90;;;;;;5090333;28;20036;-79
2022/09/12 11:50:22;;;;;;;12.15;9.18;;;23.70;99.90;;;;;;5090145;28;20044;-79
2022/09/12 11:52:49;;;;;;;10.70;8.70;;;23.90;99.90;;;;;;5072875;28;20045;-78
2022/09/12 11:55:19;;;;;;;14.15;9.77;;;24.00;99.90;;;;;;5090044;28;20680;-79
2022/09/12 11:57:55;;;;;;;10.52;9.07;;;24.10;99.90;;;;;;5092943;28;20048;-78
2022/09/12 12:00:26;;;;;;;12.52;9.15;;;24.00;99.90;;;;;;5089815;28;20033;-78
2022/09/12 12:03:19;;;;;;;12.32;8.80;;;24.10;99.90;;;;;;5072589;28;20047;-77
2022/09/12 12:06:09;;;;;;;8.63;7.25;;;24.30;99.90;;;;;;5073438;28;20044;-79
2022/09/12 12:08:41;;;;;;;10.70;7.07;;;24.70;99.90;;;;;;5095974;28;20386;-78
2022/09/12 12:11:08;;;;;;;8.85;6.97;;;24.70;99.90;;;;;;5109337;28;20040;-77
2022/09/12 12:13:47;;;;;;;8.73;6.93;;;24.60;99.90;;;;;;5096058;28;20055;-76
2022/09/12 12:16:29;;;;;;;7.55;5.80;;;24.40;99.90;;;;;;5055557;28;20044;-77
2022/09/12 12:19:05;;;;;;;8.45;5.53;;;24.30;99.90;;;;;;5091378;28;20048;-78
2022/09/12 12:21:41;;;;;;;5.90;4.78;;;24.10;99.90;;;;;;5091331;28;20562;-77
2022/09/12 12:24:07;;;;;;;7.57;4.68;;;24.30;99.90;;;;;;5091401;28;20401;-78
2022/09/12 12:26:41;;;;;;;5.22;4.15;;;24.50;99.90;;;;;;5108405;28;20039;-77
2022/09/12 12:29:34;;;;;;;6.32;5.00;;;24.70;99.90;;;;;;5098394;28;20377;-78
2022/09/12 12:32:00;;;;;;;7.50;5.25;;;24.70;99.90;;;;;;5073732;28;20586;-77
2022/09/12 12:34:35;;;;;;;7.22;5.32;;;24.70;99.90;;;;;;5105959;28;20037;-77
2022/09/12 12:37:19;;;;;;;7.65;6.07;;;25.00;99.90;;;;;;5055087;28;20036;-77
2022/09/12 12:39:46;;;;;;;8.00;6.22;;;25.20;99.90;;;;;;5105774;28;20076;-78
2022/09/12 12:42:34;;;;;;;8.00;5.28;;;25.30;99.90;;;;;;5115509;27;20242;-77
2022/09/12 12:45:02;;;;;;;7.32;5.63;;;25.30;99.90;;;;;;5091511;28;20067;-77
2022/09/12 12:47:28;;;;;;;7.07;5.68;;;25.40;99.90;;;;;;5076369;28;20044;-77
2022/09/12 12:50:20;;;;;;;6.70;5.88;;;25.50;99.90;;;;;;5054653;28;20048;-77
2022/09/12 12:52:54;;;;;;;6.20;5.05;;;25.70;99.90;;;;;;5071377;28;20547;-77
2022/09/12 12:55:32;;;;;;;6.60;4.60;;;25.80;99.90;;;;;;5072305;28;20501;-77
2022/09/12 12:58:02;;;;;;;7.20;4.25;;;25.50;99.20;;;;;;5070323;28;20460;-77
2022/09/12 13:00:32;;;;;;;7.50;4.75;;;25.40;99.80;;;;;;5068806;28;20511;-76
2022/09/12 13:03:05;;;;;;;4.55;3.88;;;25.30;99.50;;;;;;5091088;28;20127;-75